Merna, Nebraska
Current Conditions -  °F | °C
As of 4:53 PM on Wednesday 22 Oct 2014 (Local Time) from KBBW Reporting Station
Broken Clouds Broken Clouds  
Wind Chill: 18°   Ceiling: 1800
Heat Index: 18°   Visibility: 10mi
Dew Point: 13°   Wind: 5mph
Humidity: 70%   Direction: 10°N
Pressure: 30.01"   Gusts: NA
Location:  41.48°N, 99.76°W
Report Text: KBBW 222153Z AUTO 01004KT 10SM BKN018 18/13 A3001 RMK AO2 SLP150 T01830128
Loading
Personal Weather Stations






























Interactive Weather Map
Tropical Storm Tracking
New forecast layout! Learn more

10-Day Weather Forecast

Advertisements
Track Severe Weather on mobile